createdAt,value
2018-09-26T00:00:49.801Z,3.02
2018-09-26T00:03:30.053Z,3.45
2018-09-26T00:06:05.407Z,3.47
2018-09-26T00:08:41.056Z,4.00
2018-09-26T00:11:17.146Z,3.35
2018-09-26T00:13:52.886Z,2.60
2018-09-26T00:16:28.392Z,3.47
2018-09-26T00:19:04.401Z,4.05
2018-09-26T00:21:39.924Z,2.70
2018-09-26T00:24:15.597Z,2.85
2018-09-26T00:26:51.242Z,3.30
2018-09-26T00:29:26.728Z,3.10
2018-09-26T00:32:02.251Z,3.25
2018-09-26T00:34:37.776Z,3.00
2018-09-26T00:37:13.265Z,3.70
2018-09-26T00:39:48.927Z,3.02
2018-09-26T00:42:24.774Z,3.08
2018-09-26T00:45:00.235Z,3.98
2018-09-26T00:47:35.938Z,3.40
2018-09-26T00:50:11.281Z,4.95
2018-09-26T00:52:46.813Z,2.70
2018-09-26T00:55:22.196Z,3.35
2018-09-26T00:57:57.735Z,3.20
2018-09-26T01:00:33.021Z,3.47
2018-09-26T01:03:08.476Z,2.90
2018-09-26T01:05:43.846Z,3.08
2018-09-26T01:08:19.320Z,3.05
2018-09-26T01:10:54.706Z,3.55
2018-09-26T01:13:30.254Z,2.70
2018-09-26T01:16:05.801Z,3.05
2018-09-26T01:18:41.553Z,3.33
2018-09-26T01:21:16.945Z,3.60
2018-09-26T01:23:52.543Z,2.85
2018-09-26T01:26:28.021Z,2.72
2018-09-26T01:29:03.546Z,3.30
2018-09-26T01:31:39.106Z,3.67
2018-09-26T01:34:14.836Z,2.70
2018-09-26T01:36:50.315Z,3.00
2018-09-26T01:39:26.019Z,3.72
2018-09-26T01:42:01.533Z,3.20
2018-09-26T01:44:37.132Z,3.10
2018-09-26T01:47:12.458Z,4.60
2018-09-26T01:49:48.356Z,3.62
2018-09-26T01:52:23.923Z,2.95
2018-09-26T01:54:59.683Z,4.00
2018-09-26T01:57:35.493Z,3.37
2018-09-26T02:00:11.451Z,4.47
2018-09-26T02:02:46.765Z,2.98
2018-09-26T02:05:22.444Z,5.05
2018-09-26T02:07:58.292Z,3.90
2018-09-26T02:10:33.874Z,3.00
2018-09-26T02:13:09.303Z,4.97
2018-09-26T02:15:44.807Z,5.03
2018-09-26T02:18:20.271Z,3.75
2018-09-26T02:20:55.824Z,3.33
2018-09-26T02:23:31.165Z,3.30
2018-09-26T02:26:06.809Z,3.83
2018-09-26T02:28:42.157Z,4.03
2018-09-26T02:31:17.801Z,3.02
2018-09-26T02:33:53.356Z,3.80
2018-09-26T02:36:28.959Z,3.30
2018-09-26T02:39:04.900Z,4.15
2018-09-26T02:41:40.369Z,4.15
2018-09-26T02:44:15.737Z,3.98
2018-09-26T02:46:51.220Z,5.00
2018-09-26T02:49:27.064Z,4.30
2018-09-26T02:52:02.696Z,3.95
2018-09-26T02:54:38.076Z,3.77
2018-09-26T02:57:13.720Z,4.15
2018-09-26T02:59:49.216Z,5.05
2018-09-26T03:02:24.667Z,4.80
2018-09-26T03:05:00.101Z,4.47
2018-09-26T03:07:36.307Z,4.90
2018-09-26T03:10:11.829Z,4.35
2018-09-26T03:12:47.421Z,5.17
2018-09-26T03:15:22.847Z,5.17
2018-09-26T03:17:58.245Z,4.28
2018-09-26T03:20:33.684Z,4.33
2018-09-26T03:23:09.261Z,4.90
2018-09-26T03:25:44.572Z,4.72
2018-09-26T03:28:20.057Z,4.47
2018-09-26T03:30:55.437Z,5.30
2018-09-26T03:33:30.940Z,5.05
2018-09-26T03:36:06.279Z,7.85
2018-09-26T03:38:41.661Z,10.15
2018-09-26T03:41:17.165Z,5.35
2018-09-26T03:43:52.529Z,5.50
2018-09-26T03:46:27.945Z,5.05
2018-09-26T03:49:03.733Z,5.45
2018-09-26T03:51:39.096Z,5.22
2018-09-26T03:54:14.605Z,5.95
2018-09-26T03:56:50.140Z,5.60
2018-09-26T03:59:26.012Z,5.50
2018-09-26T04:02:01.620Z,5.67
2018-09-26T04:04:37.313Z,6.33
2018-09-26T04:07:12.682Z,5.30
2018-09-26T04:12:28.134Z,5.15
2018-09-26T04:15:03.602Z,5.50
2018-09-26T04:17:39.017Z,5.65
2018-09-26T04:20:14.599Z,5.37
2018-09-26T04:22:50.047Z,5.40
2018-09-26T04:25:25.720Z,4.90
2018-09-26T04:28:01.185Z,4.90
2018-09-26T04:30:36.807Z,4.92
2018-09-26T04:33:12.421Z,4.80
2018-09-26T04:35:47.664Z,4.70
2018-09-26T04:38:23.035Z,4.85
2018-09-26T04:40:58.762Z,4.60
2018-09-26T04:43:34.209Z,4.87
2018-09-26T04:46:09.864Z,4.12
2018-09-26T04:48:45.657Z,4.47
2018-09-26T04:51:21.262Z,5.22
2018-09-26T04:53:56.652Z,4.28
2018-09-26T04:56:32.269Z,4.60
2018-09-26T04:59:07.736Z,4.67
2018-09-26T05:01:43.260Z,4.17
2018-09-26T05:04:18.592Z,4.60
2018-09-26T05:06:54.345Z,5.45
2018-09-26T05:09:29.731Z,4.55
2018-09-26T05:12:05.271Z,4.22
2018-09-26T05:14:40.640Z,4.37
2018-09-26T05:17:16.063Z,4.12
2018-09-26T05:19:51.629Z,4.03
2018-09-26T05:22:27.829Z,4.55
2018-09-26T05:25:03.157Z,4.20
2018-09-26T05:27:38.544Z,3.80
2018-09-26T05:30:14.120Z,3.70
2018-09-26T05:32:49.821Z,3.50
2018-09-26T05:35:25.124Z,3.67
2018-09-26T05:38:01.035Z,4.00
2018-09-26T05:40:36.517Z,3.75
2018-09-26T05:43:12.109Z,3.80
2018-09-26T05:45:47.525Z,3.30
2018-09-26T05:48:23.306Z,3.75
2018-09-26T05:50:58.650Z,3.40
2018-09-26T05:53:34.338Z,3.75
2018-09-26T05:56:09.855Z,4.00
2018-09-26T05:58:45.489Z,4.03
2018-09-26T06:01:20.841Z,3.50
2018-09-26T06:03:56.490Z,3.55
2018-09-26T06:06:32.001Z,3.58
2018-09-26T06:09:11.454Z,3.40
2018-09-26T06:11:46.647Z,3.70
2018-09-26T06:14:22.050Z,3.85
2018-09-26T06:16:57.520Z,3.77
2018-09-26T06:19:32.941Z,3.60
2018-09-26T06:22:08.344Z,3.42
2018-09-26T06:24:44.216Z,3.35
2018-09-26T06:27:19.652Z,3.55
2018-09-26T06:29:55.297Z,3.40
2018-09-26T06:32:30.626Z,4.00
2018-09-26T06:35:06.476Z,3.50
2018-09-26T06:37:41.651Z,3.50
2018-09-26T06:40:17.110Z,3.27
2018-09-26T06:42:52.725Z,3.30
2018-09-26T06:45:28.131Z,4.17
2018-09-26T06:48:03.517Z,4.08
2018-09-26T06:50:39.005Z,4.00
2018-09-26T06:53:14.301Z,3.62
2018-09-26T06:55:50.169Z,3.70
2018-09-26T06:58:25.537Z,4.15
2018-09-26T07:01:01.053Z,4.00
2018-09-26T07:03:36.365Z,3.60
2018-09-26T07:06:11.733Z,3.30
2018-09-26T07:08:47.299Z,4.33
2018-09-26T07:11:22.698Z,3.40
2018-09-26T07:13:58.176Z,3.40
2018-09-26T07:16:33.624Z,4.35
2018-09-26T07:19:09.020Z,3.83
2018-09-26T07:21:44.608Z,3.58
2018-09-26T07:24:20.160Z,4.08
2018-09-26T07:29:30.252Z,3.58
2018-09-26T07:32:05.844Z,3.47
2018-09-26T07:34:41.198Z,3.55
2018-09-26T07:37:16.527Z,3.70
2018-09-26T07:39:52.665Z,3.50
2018-09-26T07:42:28.228Z,3.40
2018-09-26T07:45:03.522Z,3.70
2018-09-26T07:47:39.041Z,3.65
2018-09-26T07:50:14.398Z,3.60
2018-09-26T07:52:50.033Z,4.70
2018-09-26T07:55:25.502Z,3.33
2018-09-26T07:58:01.028Z,3.70
2018-09-26T08:00:36.588Z,3.35
2018-09-26T08:03:12.096Z,2.80
2018-09-26T08:05:47.459Z,3.20
2018-09-26T08:08:22.885Z,2.95
2018-09-26T08:10:58.396Z,3.85
2018-09-26T08:13:33.904Z,4.03
2018-09-26T08:16:09.784Z,3.72
2018-09-26T08:18:45.279Z,3.25
2018-09-26T08:21:20.597Z,4.03
2018-09-26T08:23:56.089Z,3.35
2018-09-26T08:26:31.382Z,4.22
2018-09-26T08:29:07.221Z,4.40
2018-09-26T08:31:42.842Z,5.25
2018-09-26T08:34:18.417Z,2.83
2018-09-26T08:36:53.631Z,2.67
2018-09-26T08:39:29.066Z,3.17
2018-09-26T08:42:04.776Z,2.90
2018-09-26T08:44:40.147Z,3.10
2018-09-26T08:47:15.483Z,2.90
2018-09-26T08:49:51.932Z,3.00
2018-09-26T08:52:27.315Z,2.22
2018-09-26T08:55:02.872Z,3.60
2018-09-26T08:57:38.339Z,2.80
2018-09-26T09:00:13.901Z,2.60
2018-09-26T09:02:49.373Z,2.50
2018-09-26T09:05:25.012Z,2.70
2018-09-26T09:08:01.165Z,2.70
2018-09-26T09:10:36.766Z,2.87
2018-09-26T09:13:12.202Z,2.98
2018-09-26T09:15:47.900Z,2.87
2018-09-26T09:18:23.374Z,3.58
2018-09-26T09:49:20.928Z,3.50
2018-09-26T10:38:22.944Z,5.47
2018-09-26T10:40:58.336Z,4.17
2018-09-26T10:43:33.786Z,5.33
2018-09-26T10:46:09.313Z,5.72
2018-09-26T10:48:44.937Z,4.83
2018-09-26T10:51:20.424Z,5.45
2018-09-26T10:53:55.946Z,5.90
2018-09-26T10:56:31.448Z,5.10
2018-09-26T10:59:06.764Z,4.80
2018-09-26T11:01:42.191Z,5.72
2018-09-26T11:04:17.654Z,6.15
2018-09-26T11:06:52.936Z,6.00
2018-09-26T11:09:28.477Z,6.58
2018-09-26T11:12:03.989Z,7.20
2018-09-26T11:14:39.506Z,6.35
2018-09-26T11:17:14.755Z,6.20
2018-09-26T11:19:50.539Z,6.85
2018-09-26T11:22:26.013Z,6.12
2018-09-26T11:25:01.549Z,5.72
2018-09-26T11:27:36.905Z,6.12
2018-09-26T11:30:12.361Z,6.58
2018-09-26T11:32:47.695Z,6.60
2018-09-26T11:35:23.611Z,7.80
2018-09-26T11:37:59.065Z,8.20
2018-09-26T11:40:34.775Z,7.03
2018-09-26T11:43:10.285Z,11.63
2018-09-26T11:45:45.690Z,6.95
2018-09-26T11:48:21.193Z,7.40
2018-09-26T11:50:56.790Z,5.90
2018-09-26T11:53:32.141Z,6.50
2018-09-26T11:56:07.658Z,6.07
2018-09-26T16:47:57.585Z,7.90
2018-09-26T16:50:33.118Z,9.20
2018-09-26T16:53:08.660Z,9.20
2018-09-26T16:55:44.408Z,11.00
2018-09-26T16:58:19.931Z,9.58
2018-09-26T17:00:55.389Z,10.20
2018-09-26T17:03:30.857Z,10.25
2018-09-26T17:06:06.422Z,9.53
2018-09-26T17:08:41.850Z,9.83
2018-09-26T17:11:17.223Z,9.13
2018-09-26T17:13:52.721Z,8.93
2018-09-26T17:16:28.549Z,9.85
2018-09-26T17:19:03.961Z,9.68
2018-09-26T17:21:39.538Z,8.90
2018-09-26T17:24:14.995Z,8.43
2018-09-26T17:26:50.390Z,8.53
2018-09-26T17:29:25.877Z,8.38
2018-09-26T17:32:01.351Z,8.38
2018-09-26T17:34:36.697Z,8.15
2018-09-26T17:37:12.140Z,7.63
2018-09-26T17:39:47.647Z,7.20
2018-09-26T17:42:23.280Z,7.67
2018-09-26T17:44:58.801Z,8.00
2018-09-26T17:47:34.355Z,8.00
2018-09-26T17:50:10.342Z,8.20
2018-09-26T17:52:45.988Z,8.20
2018-09-26T17:55:21.436Z,7.85
2018-09-26T17:57:57.010Z,8.20
2018-09-26T18:00:32.452Z,8.30
2018-09-26T18:03:07.925Z,7.70
2018-09-26T18:05:43.273Z,6.80
2018-09-26T18:08:18.674Z,6.70
2018-09-26T18:10:54.142Z,13.70
2018-09-26T18:13:29.882Z,7.10
2018-09-26T18:16:05.497Z,7.50
2018-09-26T18:21:15.977Z,7.60
2018-09-26T18:23:51.653Z,6.80
2018-09-26T18:26:27.167Z,7.55
2018-09-26T18:29:02.928Z,8.80
2018-09-26T18:31:38.223Z,6.33
2018-09-26T18:34:13.634Z,7.90
2018-09-26T18:36:49.064Z,7.55
2018-09-26T18:39:24.561Z,7.80
2018-09-26T18:42:00.061Z,8.10
2018-09-26T18:44:35.438Z,6.80
2018-09-26T18:47:10.785Z,6.45
2018-09-26T18:49:46.645Z,10.55
2018-09-26T18:52:22.008Z,7.53
2018-09-26T18:54:57.580Z,7.65
2018-09-26T18:57:33.205Z,9.88
2018-09-26T19:00:08.810Z,6.92
2018-09-26T19:02:44.120Z,6.62
2018-09-26T19:05:19.724Z,6.78
2018-09-26T19:07:55.332Z,7.15
2018-09-26T19:10:30.912Z,8.15
2018-09-26T19:13:06.566Z,8.55
2018-09-26T19:15:42.391Z,7.40
2018-09-26T19:18:17.961Z,6.22
2018-09-26T19:20:53.629Z,7.05
2018-09-26T19:23:28.992Z,7.37
2018-09-26T19:26:04.482Z,7.83
2018-09-26T19:28:39.792Z,7.75
2018-09-26T19:31:15.332Z,7.42
2018-09-26T19:33:50.822Z,8.15
2018-09-26T19:36:26.749Z,6.70
2018-09-26T19:39:02.279Z,10.65
2018-09-26T19:41:37.628Z,10.13
2018-09-26T19:44:13.024Z,8.08
2018-09-26T19:46:48.645Z,8.35
2018-09-26T19:49:24.180Z,7.00
2018-09-26T19:51:59.933Z,6.85
2018-09-26T19:54:35.750Z,6.95
2018-09-26T19:57:12.083Z,8.70
2018-09-26T19:59:47.633Z,5.78
2018-09-26T20:02:23.328Z,6.10
2018-09-26T20:04:58.950Z,5.90
2018-09-26T20:07:34.590Z,7.87
2018-09-26T20:10:10.863Z,5.72
2018-09-26T20:12:46.502Z,5.20
2018-09-26T20:15:21.881Z,5.58
2018-09-26T20:17:57.591Z,5.65
2018-09-26T20:20:33.053Z,5.55
2018-09-26T20:23:08.943Z,8.70
2018-09-26T20:25:44.463Z,7.08
2018-09-26T20:28:20.236Z,7.70
2018-09-26T20:30:55.957Z,5.25
2018-09-26T20:33:31.322Z,6.03
2018-09-26T20:36:06.803Z,7.60
2018-09-26T20:38:42.364Z,5.05
2018-09-26T20:41:17.893Z,8.80
2018-09-26T20:43:53.474Z,5.35
2018-09-26T20:46:29.005Z,5.10
2018-09-26T20:49:04.678Z,7.33
2018-09-26T20:51:40.202Z,5.95
2018-09-26T20:54:15.709Z,6.20
2018-09-26T20:56:51.229Z,6.03
2018-09-26T20:59:26.749Z,5.25
2018-09-26T21:02:02.205Z,6.90
2018-09-26T21:04:37.804Z,6.28
2018-09-26T21:07:13.273Z,5.75
2018-09-26T21:09:48.984Z,4.97
2018-09-26T21:12:24.473Z,5.10
2018-09-26T21:14:59.965Z,5.40
2018-09-26T21:17:35.575Z,8.95
2018-09-26T21:20:11.112Z,6.15
2018-09-26T21:22:46.520Z,4.87
2018-09-26T21:25:21.981Z,6.65
2018-09-26T21:27:57.611Z,5.25
2018-09-26T21:30:33.133Z,4.33
2018-09-26T21:33:08.794Z,4.22
2018-09-26T21:35:44.341Z,5.70
2018-09-26T21:38:19.881Z,5.25
2018-09-26T21:40:55.467Z,4.97
2018-09-26T21:43:30.817Z,5.20
2018-09-26T21:46:06.225Z,4.33
2018-09-26T21:48:41.592Z,4.25
2018-09-26T21:51:17.482Z,5.17
2018-09-26T21:53:52.846Z,5.55
2018-09-26T21:56:28.353Z,4.78
2018-09-26T21:59:03.709Z,4.00
2018-09-26T22:01:39.344Z,4.45
2018-09-26T22:04:14.735Z,4.97
2018-09-26T22:06:50.328Z,4.95
2018-09-26T22:09:25.692Z,5.78
2018-09-26T22:12:01.305Z,4.20
2018-09-26T22:14:36.521Z,5.42
2018-09-26T22:17:12.340Z,5.15
2018-09-26T22:19:47.984Z,4.72
2018-09-26T22:22:23.684Z,8.93
2018-09-26T22:24:59.215Z,4.83
2018-09-26T22:27:34.934Z,4.12
2018-09-26T22:30:10.293Z,4.87
2018-09-26T22:32:45.608Z,5.22
2018-09-26T22:35:20.842Z,5.28
2018-09-26T22:37:56.429Z,6.87
2018-09-26T22:40:31.677Z,4.25
2018-09-26T22:43:07.113Z,5.67
2018-09-26T22:45:42.600Z,5.00
2018-09-26T22:48:18.325Z,5.42
2018-09-26T22:50:53.944Z,4.58
2018-09-26T22:53:29.597Z,5.90
2018-09-26T22:56:05.180Z,5.03
2018-09-26T22:58:40.845Z,4.40
2018-09-26T23:01:16.315Z,6.17
2018-09-26T23:03:51.723Z,6.00
2018-09-26T23:06:27.229Z,5.25
2018-09-26T23:09:02.653Z,6.90
2018-09-26T23:11:38.064Z,5.50
2018-09-26T23:14:13.665Z,4.28
2018-09-26T23:16:49.192Z,7.00
2018-09-26T23:19:24.805Z,5.67
2018-09-26T23:22:00.209Z,4.53
2018-09-26T23:24:35.698Z,5.78
2018-09-26T23:27:11.273Z,5.78
2018-09-26T23:29:46.878Z,5.28
2018-09-26T23:32:22.393Z,4.95
2018-09-26T23:34:58.241Z,4.87
2018-09-26T23:37:33.708Z,4.50
2018-09-26T23:40:09.380Z,4.85
2018-09-26T23:42:44.733Z,4.80
2018-09-26T23:45:20.272Z,5.15
2018-09-26T23:47:55.847Z,5.78
2018-09-26T23:50:31.402Z,4.50
2018-09-26T23:53:06.800Z,5.45
2018-09-26T23:55:42.329Z,5.15
2018-09-26T23:58:17.657Z,5.22
